Time;durP1;ratioP1;P1;durP2;ratioP2;P2;SDS_P1;SDS_P2;PMS_P1;PMS_P2;Temp;Humidity;BMP_temperature;BMP_pressure;BME280_temperature;BME280_humidity;BME280_pressure;Samples;Min_cycle;Max_cycle;Signal;HPM_P1;HPM_P2
2022/02/18 00:02:14;;;;;;;16.80;5.78;;;;;;;6.55;88.22;95692.28;5033202;28;24985;-78
2022/02/18 00:04:40;;;;;;;19.50;5.53;;;;;;;6.50;88.71;95707.94;5033494;28;24419;-78
2022/02/18 00:07:07;;;;;;;17.27;5.90;;;;;;;6.45;88.41;95709.03;5032950;28;24967;-78
2022/02/18 00:09:35;;;;;;;14.50;5.70;;;;;;;6.44;89.02;95697.09;5033490;28;24431;-78
2022/02/18 00:12:02;;;;;;;14.38;5.53;;;;;;;6.39;89.07;95714.50;5033461;28;24431;-77
2022/02/18 00:14:28;;;;;;;17.85;5.80;;;;;;;6.47;88.43;95696.94;5033127;28;24426;-77
2022/02/18 00:16:55;;;;;;;18.75;6.28;;;;;;;6.50;88.08;95704.53;5032938;28;24431;-78
2022/02/18 00:19:21;;;;;;;20.52;6.43;;;;;;;6.49;87.27;95690.84;5033463;28;20788;-77
2022/02/18 00:21:49;;;;;;;17.83;5.53;;;;;;;6.48;87.76;95694.28;5033134;28;24458;-79
2022/02/18 00:24:16;;;;;;;20.15;6.28;;;;;;;6.41;88.09;95692.91;5032409;28;24473;-78
2022/02/18 00:26:44;;;;;;;19.10;6.18;;;;;;;6.39;88.08;95686.19;5032615;28;24975;-78
2022/02/18 00:29:11;;;;;;;14.45;5.40;;;;;;;6.50;86.45;95689.09;5033239;28;20764;-78
2022/02/18 00:31:37;;;;;;;16.08;5.45;;;;;;;6.43;87.54;95685.97;5033073;28;24423;-78
2022/02/18 00:34:04;;;;;;;16.35;5.45;;;;;;;6.54;87.22;95683.72;5032994;28;24829;-77
2022/02/18 00:36:30;;;;;;;20.98;5.95;;;;;;;6.47;86.81;95687.50;5033064;28;20757;-78
2022/02/18 00:38:57;;;;;;;16.08;5.55;;;;;;;6.47;87.07;95684.91;5032298;28;24501;-77
2022/02/18 00:41:23;;;;;;;16.63;6.15;;;;;;;6.50;86.89;95691.66;5032761;28;24448;-78
2022/02/18 00:43:51;;;;;;;31.73;6.10;;;;;;;6.48;86.94;95685.75;5032803;28;24438;-78
2022/02/18 00:46:18;;;;;;;21.13;6.05;;;;;;;6.48;86.38;95686.56;5032696;28;24829;-79
2022/02/18 00:48:44;;;;;;;13.37;4.83;;;;;;;6.49;86.63;95690.00;5032222;28;24434;-77
2022/02/18 00:51:11;;;;;;;20.73;5.33;;;;;;;6.55;86.45;95695.66;5032450;28;25015;-77
2022/02/18 00:53:37;;;;;;;16.90;5.50;;;;;;;6.52;86.43;95692.41;5032626;28;24559;-77
2022/02/18 00:56:04;;;;;;;23.38;5.78;;;;;;;6.49;86.65;95679.72;5032552;28;24427;-77
2022/02/18 00:58:30;;;;;;;14.50;5.25;;;;;;;6.51;85.78;95671.00;5032251;28;24822;-77
2022/02/18 01:00:58;;;;;;;14.43;5.70;;;;;;;6.59;85.54;95667.22;5032137;28;24973;-78
2022/02/18 01:03:24;;;;;;;17.70;5.75;;;;;;;6.55;85.79;95664.78;5032160;28;24439;-77
2022/02/18 01:05:51;;;;;;;16.83;5.30;;;;;;;6.55;85.86;95677.66;5032332;28;24424;-77
2022/02/18 01:08:18;;;;;;;13.30;5.15;;;;;;;6.57;85.68;95679.34;5032111;28;24431;-77
2022/02/18 01:10:45;;;;;;;19.67;5.35;;;;;;;6.58;86.13;95678.44;5032309;28;24436;-77
2022/02/18 01:13:11;;;;;;;17.88;6.03;;;;;;;6.59;86.01;95685.22;5032314;28;24456;-77
2022/02/18 01:15:38;;;;;;;15.77;4.90;;;;;;;6.60;86.27;95684.31;5032179;28;24436;-77
2022/02/18 01:18:06;;;;;;;14.15;5.10;;;;;;;6.55;86.35;95687.13;5031907;28;24424;-78
2022/02/18 01:20:32;;;;;;;17.25;6.20;;;;;;;6.60;86.13;95684.31;5032136;28;24431;-78
2022/02/18 01:22:59;;;;;;;17.73;5.65;;;;;;;6.60;86.11;95684.31;5031954;28;24798;-77
2022/02/18 01:25:25;;;;;;;16.88;5.05;;;;;;;6.69;86.21;95694.19;5032067;28;20760;-77
2022/02/18 01:27:55;;;;;;;12.07;5.05;;;;;;;6.67;86.41;95677.97;5031440;28;24992;-78
2022/02/18 01:30:23;;;;;;;15.98;4.65;;;;;;;6.69;86.54;95664.13;5031950;28;24446;-78
2022/02/18 01:32:50;;;;;;;16.50;4.72;;;;;;;6.71;86.59;95667.47;5031738;28;24451;-79
2022/02/18 01:35:18;;;;;;;15.13;5.45;;;;;;;6.65;86.87;95680.63;5030834;28;24452;-78
2022/02/18 01:37:45;;;;;;;20.23;5.88;;;;;;;6.68;86.70;95679.66;5071143;23;24581;-75
2022/02/18 01:40:14;;;;;;;18.27;5.53;;;;;;;6.72;86.97;95682.00;5051489;28;20774;-75
2022/02/18 01:42:41;;;;;;;24.17;5.47;;;;;;;6.68;87.51;95661.66;5042850;28;24493;-75
2022/02/18 01:45:09;;;;;;;11.85;4.18;;;;;;;6.68;87.52;95671.94;5051409;28;24427;-75
2022/02/18 01:47:35;;;;;;;15.67;5.00;;;;;;;6.64;87.86;95686.69;5051133;28;20796;-74
2022/02/18 01:50:02;;;;;;;14.93;5.00;;;;;;;6.69;87.49;95687.28;5051248;28;24510;-75
2022/02/18 01:52:33;;;;;;;15.75;5.03;;;;;;;6.61;87.92;95691.97;5050962;28;24839;-75
2022/02/18 01:54:59;;;;;;;15.32;5.07;;;;;;;6.60;88.18;95695.47;5050219;28;20782;-74
2022/02/18 01:57:27;;;;;;;13.05;4.68;;;;;;;6.61;88.37;95686.00;5050444;28;24840;-75
2022/02/18 01:59:53;;;;;;;11.25;4.43;;;;;;;6.61;88.41;95679.13;5051058;28;24510;-75
2022/02/18 02:02:20;;;;;;;16.08;5.30;;;;;;;6.68;88.10;95667.63;5051010;28;24447;-75
2022/02/18 02:04:47;;;;;;;18.00;5.60;;;;;;;6.69;87.94;95665.88;5050870;28;24423;-75
2022/02/18 02:07:13;;;;;;;26.20;5.15;;;;;;;6.64;88.11;95660.97;5050566;28;24469;-75
2022/02/18 02:09:41;;;;;;;17.10;4.88;;;;;;;6.68;88.06;95659.06;5050457;28;24813;-75
2022/02/18 02:12:09;;;;;;;18.23;5.35;;;;;;;6.62;88.56;95656.78;5050717;28;24811;-74
2022/02/18 02:14:35;;;;;;;16.48;5.10;;;;;;;6.67;88.26;95657.38;5051079;28;20836;-73
2022/02/18 02:17:02;;;;;;;14.95;5.25;;;;;;;6.56;88.96;95668.19;5050627;28;24476;-74
2022/02/18 02:19:30;;;;;;;21.48;5.20;;;;;;;6.53;89.35;95661.47;5050934;28;24819;-73
2022/02/18 02:21:57;;;;;;;13.05;4.57;;;;;;;6.54;89.61;95641.72;5050657;28;21313;-75
2022/02/18 02:24:25;;;;;;;15.55;4.80;;;;;;;6.69;88.43;95638.38;5050611;28;24427;-74
2022/02/18 02:26:51;;;;;;;13.35;4.63;;;;;;;6.62;88.60;95631.06;5050564;28;24477;-75
2022/02/18 02:29:18;;;;;;;13.18;4.43;;;;;;;6.59;89.37;95621.72;5050489;28;24435;-74
2022/02/18 02:31:45;;;;;;;11.48;4.60;;;;;;;6.58;89.09;95621.81;5050860;28;24474;-75
2022/02/18 02:34:12;;;;;;;13.05;4.40;;;;;;;6.50;89.78;95617.88;5050815;28;24422;-74
2022/02/18 02:36:38;;;;;;;12.80;4.23;;;;;;;6.46;90.13;95613.81;5050595;28;24483;-75
2022/02/18 02:39:05;;;;;;;12.85;4.63;;;;;;;6.45;89.75;95616.44;5050247;28;24442;-75
2022/02/18 02:41:34;;;;;;;12.98;4.68;;;;;;;6.37;91.11;95614.22;5050163;28;24439;-75
2022/02/18 02:44:01;;;;;;;16.63;4.80;;;;;;;6.46;89.98;95618.13;5050769;28;24451;-74
2022/02/18 02:46:27;;;;;;;15.23;4.22;;;;;;;6.41;90.49;95618.31;5050131;28;24427;-74
2022/02/18 02:48:54;;;;;;;14.23;4.55;;;;;;;6.44;90.29;95613.03;5050072;28;24427;-74
2022/02/18 02:51:20;;;;;;;10.45;4.15;;;;;;;6.42;90.57;95607.16;5050257;28;24477;-73
2022/02/18 02:53:47;;;;;;;12.88;4.55;;;;;;;6.50;90.08;95594.72;5050185;28;24430;-74
2022/02/18 02:56:14;;;;;;;14.32;4.30;;;;;;;6.58;89.69;95585.81;5050401;28;24427;-74
2022/02/18 02:58:42;;;;;;;13.93;4.57;;;;;;;6.49;90.33;95587.09;5050090;28;24430;-75
2022/02/18 03:01:09;;;;;;;10.63;4.10;;;;;;;6.39;90.55;95580.72;5050528;28;24863;-75
2022/02/18 03:03:35;;;;;;;13.18;4.03;;;;;;;6.47;90.37;95568.31;5050216;28;24513;-74
2022/02/18 03:06:02;;;;;;;10.52;4.18;;;;;;;6.50;90.16;95573.31;5049958;28;25152;-74
2022/02/18 03:08:28;;;;;;;13.77;4.63;;;;;;;6.59;89.63;95577.16;5050099;28;24430;-73
2022/02/18 03:13:39;;;;;;;13.15;4.40;;;;;;;6.90;87.73;95567.00;5050231;28;24501;-73
2022/02/18 03:16:07;;;;;;;20.73;4.90;;;;;;;6.74;88.81;95556.63;5050277;28;25036;-74
2022/02/18 03:18:33;;;;;;;13.75;4.88;;;;;;;6.72;88.76;95555.06;5049633;28;24435;-76
2022/02/18 03:21:00;;;;;;;13.05;4.50;;;;;;;6.62;89.80;95553.84;5050152;28;24477;-76
2022/02/18 03:23:27;;;;;;;15.32;4.60;;;;;;;6.74;88.54;95538.59;5050098;28;24497;-74
2022/02/18 03:25:54;;;;;;;14.32;4.85;;;;;;;6.88;87.86;95534.50;5050312;28;24427;-74
2022/02/18 03:28:20;;;;;;;15.73;4.88;;;;;;;6.87;87.00;95527.69;5049826;28;24816;-74
2022/02/18 03:30:47;;;;;;;9.55;3.90;;;;;;;6.90;86.98;95530.94;5049977;28;24423;-74
2022/02/18 03:33:15;;;;;;;14.43;4.20;;;;;;;6.99;86.60;95520.16;5049711;28;24943;-75
2022/02/18 03:35:41;;;;;;;16.05;4.50;;;;;;;6.74;87.65;95528.31;5049729;28;24970;-75
2022/02/18 03:38:08;;;;;;;10.68;3.95;;;;;;;6.79;87.93;95533.25;5049450;28;24978;-76
2022/02/18 03:40:35;;;;;;;9.18;3.92;;;;;;;6.59;89.15;95536.81;5049948;28;24423;-76
2022/02/18 03:43:02;;;;;;;17.95;5.30;;;;;;;6.63;89.01;95529.78;5049843;28;24446;-76
2022/02/18 03:45:29;;;;;;;12.05;4.32;;;;;;;6.53;89.83;95537.97;5049693;28;24472;-75
2022/02/18 03:47:56;;;;;;;11.80;4.03;;;;;;;6.70;88.46;95528.56;5049538;28;24971;-76
2022/02/18 03:50:24;;;;;;;14.57;4.25;;;;;;;6.72;88.44;95529.31;5049608;28;24419;-75
2022/02/18 03:52:51;;;;;;;11.27;3.90;;;;;;;6.55;89.55;95531.00;5050003;28;24430;-74
2022/02/18 03:55:18;;;;;;;11.57;3.60;;;;;;;6.54;90.10;95526.75;5049789;28;24434;-74
2022/02/18 03:57:45;;;;;;;16.17;4.10;;;;;;;6.55;89.94;95525.84;5049672;28;20762;-74
2022/02/18 04:00:13;;;;;;;13.55;4.32;;;;;;;6.73;89.02;95516.34;5052650;28;24423;-74
2022/02/18 04:02:39;;;;;;;12.70;4.03;;;;;;;6.82;88.20;95511.63;5053388;28;24492;-75
2022/02/18 04:05:06;;;;;;;12.20;4.25;;;;;;;6.84;87.99;95514.97;5053159;28;24831;-75
2022/02/18 04:07:34;;;;;;;10.13;3.70;;;;;;;6.78;88.63;95519.50;5052925;28;24431;-74
2022/02/18 04:10:01;;;;;;;12.70;4.47;;;;;;;6.63;89.68;95511.75;5053146;28;24477;-75
2022/02/18 04:12:27;;;;;;;14.20;4.13;;;;;;;6.78;88.99;95505.81;5052935;28;24940;-75
2022/02/18 04:14:54;;;;;;;10.00;3.45;;;;;;;6.70;89.67;95505.38;5052899;28;24419;-75
2022/02/18 04:17:22;;;;;;;12.50;3.70;;;;;;;6.89;88.42;95505.25;5052715;28;25063;-75
2022/02/18 04:19:48;;;;;;;14.90;4.47;;;;;;;6.70;89.33;95497.66;5052741;28;24948;-74
2022/02/18 04:22:15;;;;;;;18.60;4.43;;;;;;;6.54;90.34;95485.59;5052788;28;24510;-73
2022/02/18 04:24:42;;;;;;;16.10;3.95;;;;;;;6.60;90.83;95481.91;5048138;28;24496;-74
2022/02/18 04:27:09;;;;;;;11.65;4.03;;;;;;;6.62;90.69;95474.09;5052839;28;24426;-74
2022/02/18 04:29:35;;;;;;;14.40;4.30;;;;;;;6.67;90.12;95475.50;5052637;28;24497;-75
2022/02/18 04:32:02;;;;;;;10.80;3.70;;;;;;;6.60;90.57;95478.47;5052789;28;24412;-75
2022/02/18 04:34:28;;;;;;;11.75;4.05;;;;;;;6.65;90.62;95461.88;5052422;28;24987;-76
2022/02/18 04:36:55;;;;;;;12.50;4.30;;;;;;;6.53;91.31;95460.78;5052448;28;24484;-74
2022/02/18 04:39:21;;;;;;;10.10;3.83;;;;;;;6.56;90.86;95462.34;5052436;28;24511;-74
2022/02/18 04:41:49;;;;;;;16.08;4.32;;;;;;;6.55;90.77;95455.56;5052666;28;24506;-75
2022/02/18 04:44:16;;;;;;;10.48;3.67;;;;;;;6.47;91.70;95468.00;5052331;28;24422;-75
2022/02/18 04:46:42;;;;;;;11.65;4.07;;;;;;;6.49;91.38;95469.59;5051622;28;24496;-74
2022/02/18 04:49:09;;;;;;;14.25;4.47;;;;;;;6.43;92.22;95475.03;5052183;28;24485;-74
2022/02/18 04:51:37;;;;;;;19.97;4.93;;;;;;;6.35;93.17;95474.59;5052578;28;24789;-74
2022/02/18 04:54:04;;;;;;;9.88;4.07;;;;;;;6.36;93.22;95462.56;5052320;28;24438;-75
2022/02/18 04:56:30;;;;;;;10.18;3.90;;;;;;;6.36;93.25;95458.25;5052081;28;20770;-75
2022/02/18 04:58:59;;;;;;;12.15;4.25;;;;;;;6.40;93.23;95459.75;5051654;28;24979;-75
2022/02/18 05:01:26;;;;;;;10.15;3.95;;;;;;;6.34;93.90;95446.38;5052084;28;25157;-75
2022/02/18 05:03:53;;;;;;;10.30;4.07;;;;;;;6.32;94.59;95449.03;5051967;28;24508;-75
2022/02/18 05:06:20;;;;;;;13.15;4.10;;;;;;;6.23;95.66;95441.75;5051791;28;25014;-76
2022/02/18 05:08:46;;;;;;;11.88;4.18;;;;;;;6.31;95.58;95434.50;5051694;28;24427;-76
2022/02/18 05:11:14;;;;;;;16.98;4.72;;;;;;;6.42;94.63;95429.66;5050909;28;24427;-75
2022/02/18 05:13:40;;;;;;;13.57;3.88;;;;;;;6.36;95.29;95429.94;5051428;28;24435;-76
2022/02/18 05:16:08;;;;;;;12.85;4.25;;;;;;;6.18;97.42;95434.28;5051504;28;24434;-76
2022/02/18 05:18:37;;;;;;;11.43;4.10;;;;;;;6.21;97.27;95431.56;5051647;28;24582;-76
2022/02/18 05:21:03;;;;;;;13.93;6.03;;;;;;;6.17;98.12;95416.38;5052048;28;20803;-76
2022/02/18 05:23:30;;;;;;;12.73;5.32;;;;;;;6.10;99.30;95421.00;5051180;28;25011;-75
2022/02/18 05:25:56;;;;;;;13.43;4.80;;;;;;;6.02;100.00;95405.13;5051731;28;24458;-75
2022/02/18 05:28:23;;;;;;;11.75;4.35;;;;;;;6.06;100.00;95411.78;5051272;28;24431;-75
2022/02/18 05:30:49;;;;;;;15.38;4.45;;;;;;;6.05;100.00;95385.25;5051744;28;24415;-75
2022/02/18 05:33:17;;;;;;;12.35;4.38;;;;;;;6.01;100.00;95383.75;5051715;28;24465;-75
2022/02/18 05:35:44;;;;;;;17.97;5.13;;;;;;;6.06;100.00;95388.66;5051448;28;21296;-75
2022/02/18 05:38:10;;;;;;;17.37;5.00;;;;;;;6.04;100.00;95378.44;5051219;28;24904;-75
2022/02/18 05:40:36;;;;;;;15.80;5.97;;;;;;;5.98;100.00;95373.63;5051532;28;24424;-74
2022/02/18 05:43:04;;;;;;;13.45;4.47;;;;;;;6.03;100.00;95363.91;5051429;28;24813;-76
2022/02/18 05:45:30;;;;;;;15.23;4.90;;;;;;;5.88;100.00;95364.66;5051286;28;24515;-76
2022/02/18 05:47:57;;;;;;;12.52;4.53;;;;;;;5.98;100.00;95349.66;5050878;28;24419;-76
2022/02/18 05:50:24;;;;;;;16.35;4.53;;;;;;;5.94;100.00;95340.44;5051245;28;24441;-75
2022/02/18 05:52:51;;;;;;;14.35;4.55;;;;;;;5.89;100.00;95334.66;5050764;28;24423;-75
2022/02/18 05:55:17;;;;;;;13.13;4.45;;;;;;;5.85;100.00;95330.59;5050496;28;24489;-77
2022/02/18 05:57:44;;;;;;;21.23;5.28;;;;;;;5.80;100.00;95317.97;5050602;28;24435;-76
2022/02/18 06:00:12;;;;;;;16.67;6.05;;;;;;;5.70;100.00;95324.47;5051109;28;24506;-76
2022/02/18 06:02:38;;;;;;;15.85;5.13;;;;;;;5.68;100.00;95319.44;5050817;28;24497;-75
2022/02/18 06:05:06;;;;;;;19.40;5.13;;;;;;;5.68;100.00;95321.19;5050564;28;24519;-75
2022/02/18 06:07:34;;;;;;;15.15;4.30;;;;;;;5.71;100.00;95313.28;5050580;28;24477;-75
2022/02/18 06:10:01;;;;;;;13.93;4.50;;;;;;;5.63;100.00;95310.28;5050646;28;24801;-76
2022/02/18 06:12:27;;;;;;;14.55;4.57;;;;;;;5.62;100.00;95308.63;5050722;28;24430;-76
2022/02/18 06:14:54;;;;;;;12.00;4.38;;;;;;;5.62;100.00;95288.91;5051045;28;24434;-75
2022/02/18 06:17:20;;;;;;;12.90;4.72;;;;;;;5.57;100.00;95303.75;5050284;28;24781;-76
2022/02/18 06:19:47;;;;;;;14.30;5.25;;;;;;;5.52;100.00;95301.38;5050209;28;24431;-76
2022/02/18 06:22:15;;;;;;;18.73;4.38;;;;;;;5.47;100.00;95295.66;5050185;28;24427;-76
2022/02/18 06:24:43;;;;;;;14.25;5.20;;;;;;;5.47;100.00;95293.09;5050649;28;24666;-76
2022/02/18 06:27:10;;;;;;;18.63;5.23;;;;;;;5.52;100.00;95280.81;5050129;28;24820;-75
2022/02/18 06:29:36;;;;;;;13.60;5.07;;;;;;;5.46;100.00;95273.47;5050541;28;24423;-76
2022/02/18 06:32:07;;;;;;;13.77;4.90;;;;;;;5.47;100.00;95271.72;5050990;28;24500;-77
2022/02/18 06:34:33;;;;;;;14.88;5.20;;;;;;;5.48;100.00;95269.06;5050508;28;24431;-76
2022/02/18 06:37:00;;;;;;;13.80;4.80;;;;;;;5.53;100.00;95251.69;5050753;28;24418;-76
2022/02/18 06:39:26;;;;;;;13.70;4.40;;;;;;;5.55;100.00;95251.59;5050599;28;24431;-75
2022/02/18 06:41:54;;;;;;;14.73;5.03;;;;;;;5.54;100.00;95248.19;5050663;28;24972;-75
2022/02/18 06:44:21;;;;;;;13.35;4.70;;;;;;;5.48;100.00;95250.25;5050700;28;24447;-75
2022/02/18 06:46:47;;;;;;;18.17;5.07;;;;;;;5.45;100.00;95242.69;5050223;28;24430;-75
2022/02/18 06:49:13;;;;;;;15.00;5.05;;;;;;;5.45;100.00;95240.97;5050044;28;24431;-75
2022/02/18 06:51:40;;;;;;;24.73;5.30;;;;;;;5.50;100.00;95251.00;5050438;28;24446;-75
2022/02/18 06:54:06;;;;;;;21.90;5.40;;;;;;;5.43;100.00;95242.78;5050883;28;24473;-75
2022/02/18 06:56:33;;;;;;;18.80;4.57;;;;;;;5.40;100.00;95244.69;5050471;28;24980;-75
2022/02/18 06:59:00;;;;;;;12.93;4.80;;;;;;;5.45;100.00;95237.56;5050827;28;24481;-76
2022/02/18 07:01:27;;;;;;;13.23;4.53;;;;;;;5.45;100.00;95243.56;5050455;28;24952;-76
2022/02/18 07:03:53;;;;;;;19.65;4.93;;;;;;;5.44;100.00;95236.72;5050127;28;24438;-76
2022/02/18 07:06:20;;;;;;;21.13;4.95;;;;;;;5.39;100.00;95230.19;5050228;28;24420;-77
2022/02/18 07:08:46;;;;;;;16.70;4.90;;;;;;;5.39;100.00;95228.44;5050154;28;24427;-74
2022/02/18 07:11:13;;;;;;;26.92;11.02;;;;;;;5.41;100.00;95226.59;5050399;28;24420;-74
2022/02/18 07:13:40;;;;;;;17.65;4.53;;;;;;;5.43;100.00;95227.38;5050455;28;24481;-75
2022/02/18 07:16:08;;;;;;;9.35;4.07;;;;;;;5.50;100.00;95226.16;5050236;28;24464;-76
2022/02/18 07:18:35;;;;;;;11.95;4.05;;;;;;;5.61;100.00;95217.06;5050097;28;24443;-76
2022/02/18 07:21:01;;;;;;;10.57;3.93;;;;;;;5.64;100.00;95222.88;5050370;28;24488;-76
2022/02/18 07:23:28;;;;;;;13.35;3.92;;;;;;;5.73;100.00;95229.28;5050231;28;24454;-76
2022/02/18 07:25:54;;;;;;;13.40;4.40;;;;;;;5.77;100.00;95216.16;5050106;28;24423;-75
2022/02/18 07:28:21;;;;;;;18.03;4.90;;;;;;;5.83;100.00;95213.28;5050063;28;24507;-74
2022/02/18 07:30:47;;;;;;;12.20;4.18;;;;;;;5.90;100.00;95218.94;5049936;28;24827;-76
2022/02/18 07:33:15;;;;;;;22.20;4.05;;;;;;;5.93;100.00;95207.69;5051182;28;24876;-76
2022/02/18 07:35:42;;;;;;;12.23;4.10;;;;;;;5.96;100.00;95205.78;5053619;28;24975;-77
2022/02/18 07:38:08;;;;;;;13.18;3.88;;;;;;;5.97;100.00;95196.31;5053890;28;24427;-74
2022/02/18 07:40:35;;;;;;;7.25;2.75;;;;;;;6.01;100.00;95190.13;5053971;28;24421;-74
2022/02/18 07:43:01;;;;;;;9.25;3.13;;;;;;;6.06;100.00;95183.81;5054014;28;24855;-75
2022/02/18 07:45:27;;;;;;;13.68;3.67;;;;;;;6.13;100.00;95191.19;5053344;28;24424;-75
2022/02/18 07:47:54;;;;;;;11.43;3.42;;;;;;;6.09;100.00;95185.38;5053154;28;24439;-75
2022/02/18 07:50:23;;;;;;;9.27;3.25;;;;;;;6.14;100.00;95180.00;5053765;28;24429;-76
2022/02/18 07:52:49;;;;;;;9.85;3.42;;;;;;;6.21;100.00;95186.47;5053425;28;24420;-76
2022/02/18 07:55:16;;;;;;;13.57;3.83;;;;;;;6.24;100.00;95181.16;5053393;28;24801;-76
2022/02/18 07:57:43;;;;;;;8.93;3.00;;;;;;;6.25;100.00;95164.81;5053164;28;24415;-77
2022/02/18 08:00:10;;;;;;;11.07;3.60;;;;;;;6.27;100.00;95160.41;5052884;28;24511;-76
2022/02/18 08:02:37;;;;;;;12.27;3.55;;;;;;;6.29;100.00;95153.44;5070409;28;24432;-76
2022/02/18 08:05:03;;;;;;;13.60;3.47;;;;;;;6.34;100.00;95150.59;5072853;28;24439;-76
2022/02/18 08:07:31;;;;;;;16.83;3.60;;;;;;;6.38;100.00;95152.06;5053298;28;24435;-75
2022/02/18 08:09:58;;;;;;;19.50;3.15;;;;;;;6.45;100.00;95146.53;5053720;28;24427;-76
2022/02/18 08:12:24;;;;;;;8.60;3.22;;;;;;;6.52;100.00;95146.97;5053257;28;24423;-75
2022/02/18 08:14:50;;;;;;;7.88;3.15;;;;;;;6.68;100.00;95146.97;5053608;28;24411;-75
2022/02/18 08:17:17;;;;;;;13.93;3.65;;;;;;;6.83;100.00;95140.94;5052764;28;24446;-76
2022/02/18 08:19:43;;;;;;;9.70;3.43;;;;;;;6.89;100.00;95147.44;5051818;28;24505;-76
2022/02/18 08:22:10;;;;;;;10.10;3.20;;;;;;;6.91;100.00;95123.28;5051957;28;24532;-74
2022/02/18 08:24:38;;;;;;;9.23;2.92;;;;;;;7.18;100.00;95114.84;5052541;28;20813;-74
2022/02/18 08:27:06;;;;;;;10.40;3.30;;;;;;;7.24;100.00;95117.88;5052260;28;24431;-75
2022/02/18 08:29:33;;;;;;;9.75;2.90;;;;;;;7.33;100.00;95118.25;5050075;28;24437;-75
2022/02/18 08:31:59;;;;;;;6.65;2.72;;;;;;;7.36;100.00;95113.72;5052705;28;24424;-75
2022/02/18 08:34:26;;;;;;;11.15;3.30;;;;;;;7.44;100.00;95114.09;5052629;28;24489;-76
2022/02/18 08:36:52;;;;;;;7.97;3.17;;;;;;;7.53;100.00;95105.00;5047447;28;24852;-76
2022/02/18 08:39:19;;;;;;;8.90;2.80;;;;;;;7.57;100.00;95098.72;5052730;28;24513;-74
2022/02/18 08:41:47;;;;;;;8.55;2.60;;;;;;;7.73;100.00;95088.28;5052488;28;24435;-76
2022/02/18 08:44:14;;;;;;;11.55;2.75;;;;;;;7.98;100.00;95090.97;5049803;28;20791;-75
2022/02/18 08:46:41;;;;;;;5.78;2.45;;;;;;;8.28;100.00;95094.28;5051721;28;24984;-74
2022/02/18 08:49:08;;;;;;;11.68;3.28;;;;;;;8.54;100.00;95077.94;5052766;28;20805;-75
2022/02/18 08:51:34;;;;;;;6.05;2.60;;;;;;;8.77;100.00;95081.59;5052104;28;24435;-76
2022/02/18 08:54:01;;;;;;;10.52;2.60;;;;;;;9.02;100.00;95069.63;5051695;28;24488;-76
2022/02/18 08:56:29;;;;;;;5.57;2.00;;;;;;;9.36;100.00;95071.53;5051872;28;24427;-74
2022/02/18 08:58:57;;;;;;;6.25;2.10;;;;;;;9.65;100.00;95066.94;5051632;28;21400;-75
2022/02/18 09:01:25;;;;;;;3.80;1.70;;;;;;;9.92;100.00;95068.50;5051710;28;20812;-75
2022/02/18 09:03:51;;;;;;;8.52;2.17;;;;;;;9.97;100.00;95065.56;5049414;28;24478;-76
2022/02/18 09:06:18;;;;;;;4.65;1.60;;;;;;;10.09;100.00;95049.19;5051662;28;24439;-76
2022/02/18 09:08:44;;;;;;;5.80;1.60;;;;;;;10.18;100.00;95048.50;5051362;28;24443;-77
2022/02/18 09:11:11;;;;;;;5.35;1.58;;;;;;;10.40;100.00;95048.63;5051422;28;24427;-76
2022/02/18 09:13:37;;;;;;;3.97;1.50;;;;;;;10.69;100.00;95044.81;5051164;28;24424;-76
2022/02/18 09:16:05;;;;;;;4.90;1.60;;;;;;;10.89;100.00;95032.00;5051410;28;24485;-75
2022/02/18 09:18:32;;;;;;;7.68;1.40;;;;;;;11.01;100.00;95034.59;5051131;28;24443;-75
2022/02/18 09:20:58;;;;;;;5.22;1.52;;;;;;;11.25;100.00;95030.16;5051772;28;24423;-76
2022/02/18 09:23:24;;;;;;;6.10;1.63;;;;;;;11.45;100.00;95015.63;5051060;28;24443;-76
2022/02/18 09:25:51;;;;;;;5.07;1.30;;;;;;;11.53;100.00;95009.84;5051691;28;24435;-76
2022/02/18 09:28:17;;;;;;;3.45;1.40;;;;;;;11.67;100.00;95013.94;5051412;28;24442;-77
2022/02/18 09:30:45;;;;;;;3.17;1.35;;;;;;;11.45;100.00;95026.00;5051542;28;24422;-76
2022/02/18 09:33:14;;;;;;;6.87;1.30;;;;;;;11.28;100.00;95013.53;5051375;28;25303;-76
2022/02/18 09:35:42;;;;;;;4.43;1.50;;;;;;;11.38;100.00;95023.06;5051148;28;24498;-76
2022/02/18 09:38:10;;;;;;;4.93;1.50;;;;;;;11.49;100.00;95017.03;5051226;28;24427;-75
2022/02/18 09:40:37;;;;;;;4.77;1.40;;;;;;;11.58;100.00;95008.53;5051643;28;24430;-76
2022/02/18 09:43:04;;;;;;;4.50;1.20;;;;;;;11.65;100.00;95015.84;5051605;28;24426;-76
2022/02/18 09:45:31;;;;;;;2.00;0.90;;;;;;;11.79;100.00;95016.41;5051079;28;24448;-76
2022/02/18 09:47:58;;;;;;;5.93;1.60;;;;;;;11.94;100.00;95003.16;5050874;28;24514;-76
2022/02/18 09:50:27;;;;;;;3.63;1.30;;;;;;;11.86;100.00;95006.38;5051432;28;24423;-78
2022/02/18 09:52:54;;;;;;;5.10;1.50;;;;;;;11.99;100.00;94995.84;5052171;28;24423;-79
2022/02/18 09:55:20;;;;;;;8.52;2.08;;;;;;;11.97;99.55;94997.72;5051711;28;24419;-75
2022/02/18 09:57:52;;;;;;;3.97;1.33;;;;;;;11.77;98.95;94997.53;5049792;28;24431;-77
2022/02/18 10:00:19;;;;;;;4.97;1.38;;;;;;;11.78;98.40;94981.00;5051265;28;24443;-75
2022/02/18 10:02:48;;;;;;;4.38;1.23;;;;;;;11.81;98.95;94996.34;5051077;28;24419;-76
2022/02/18 10:05:15;;;;;;;3.58;1.33;;;;;;;11.77;98.91;94983.75;5051003;28;24443;-76
2022/02/18 10:08:11;;;;;;;2.72;0.85;;;;;;;11.75;97.80;94978.66;5050728;28;24465;-75
2022/02/18 10:10:40;;;;;;;4.40;1.20;;;;;;;11.83;97.90;94991.03;4994168;28;25007;-76
2022/02/18 10:13:23;;;;;;;3.23;1.10;;;;;;;11.77;98.18;94974.19;5050667;28;24434;-76
2022/02/18 10:15:50;;;;;;;1.70;0.60;;;;;;;11.85;96.72;94983.97;5050904;28;24412;-76
2022/02/18 10:18:16;;;;;;;4.00;0.90;;;;;;;12.02;95.89;94962.69;5050577;28;24431;-75
2022/02/18 10:20:45;;;;;;;2.90;0.95;;;;;;;11.88;95.78;94982.91;5050958;28;24983;-76
2022/02/18 10:23:13;;;;;;;2.00;0.77;;;;;;;11.79;97.23;94961.94;5051126;28;24435;-74
2022/02/18 10:25:41;;;;;;;2.13;0.75;;;;;;;11.77;98.32;94976.78;5050710;28;24806;-75
2022/02/18 10:28:11;;;;;;;3.95;1.08;;;;;;;11.66;98.16;94979.41;5050858;28;24960;-75
2022/02/18 10:30:38;;;;;;;2.22;0.90;;;;;;;11.63;98.03;94969.25;5051319;28;24419;-76
2022/02/18 10:33:16;;;;;;;2.42;0.85;;;;;;;11.64;97.57;94963.13;5051155;28;24415;-76
2022/02/18 10:35:44;;;;;;;2.22;0.80;;;;;;;11.62;98.08;94962.44;5051346;28;24419;-75
2022/02/18 10:38:10;;;;;;;3.05;0.98;;;;;;;11.62;97.89;94965.03;5050765;28;24434;-74
2022/02/18 10:40:46;;;;;;;3.60;1.08;;;;;;;11.77;97.39;94960.38;5050644;28;24948;-75
2022/02/18 10:43:14;;;;;;;2.75;0.68;;;;;;;11.74;97.09;94930.31;5051158;28;24459;-74
2022/02/18 10:45:52;;;;;;;1.63;0.80;;;;;;;11.65;98.20;94953.59;5050768;28;24454;-74
2022/02/18 10:48:20;;;;;;;9.10;1.17;;;;;;;11.61;97.83;94943.47;5050724;28;24427;-75
2022/02/18 10:51:03;;;;;;;4.47;0.80;;;;;;;11.62;98.00;94931.31;5050952;28;24477;-75
2022/02/18 10:53:35;;;;;;;1.98;0.80;;;;;;;11.63;97.54;94907.03;5050985;28;24526;-75
2022/02/18 10:56:05;;;;;;;11.18;1.20;;;;;;;11.64;96.90;94903.47;5054657;28;24426;-75
2022/02/18 10:58:33;;;;;;;7.55;1.20;;;;;;;11.71;95.65;94890.84;5071090;28;24435;-76
2022/02/18 11:01:11;;;;;;;4.35;1.20;;;;;;;11.96;96.26;94893.09;5070966;28;24970;-75
2022/02/18 11:03:39;;;;;;;3.28;0.98;;;;;;;11.90;94.45;94898.78;5071110;28;24434;-75
2022/02/18 11:06:18;;;;;;;6.68;0.90;;;;;;;11.98;94.37;94883.44;5069926;28;24496;-75
2022/02/18 11:08:53;;;;;;;4.32;1.10;;;;;;;11.91;94.44;94876.28;5072450;28;24838;-76
2022/02/18 11:11:23;;;;;;;1.93;0.77;;;;;;;12.00;93.44;94884.13;5074181;28;24951;-75
2022/02/18 11:13:50;;;;;;;3.30;1.00;;;;;;;12.09;93.28;94885.97;5075147;28;24430;-74
2022/02/18 11:16:18;;;;;;;3.75;1.05;;;;;;;12.16;92.17;94872.47;5074502;28;24419;-76
2022/02/18 11:18:46;;;;;;;3.50;1.00;;;;;;;12.24;92.59;94868.28;5073826;28;24857;-76
2022/02/18 11:21:14;;;;;;;5.07;1.33;;;;;;;12.38;90.99;94850.72;5073953;28;24956;-76
2022/02/18 11:23:43;;;;;;;2.55;0.80;;;;;;;12.43;89.90;94851.16;5073980;28;24502;-76
2022/02/18 11:26:11;;;;;;;3.40;0.80;;;;;;;12.55;89.29;94848.34;5073564;28;24442;-76
2022/02/18 11:28:39;;;;;;;3.17;0.90;;;;;;;12.49;88.80;94841.06;5073582;28;25021;-73
2022/02/18 11:31:13;;;;;;;3.15;0.90;;;;;;;12.45;87.83;94831.06;5074189;28;24552;-75
2022/02/18 11:33:58;;;;;;;3.30;1.10;;;;;;;12.43;88.55;94833.00;5073905;28;24509;-75
2022/02/18 11:36:52;;;;;;;4.75;1.00;;;;;;;12.50;89.17;94816.75;5073346;28;24428;-76